Etusivu
METAR-TAF:

METAR-TAF

Lentoasemat :

San José, Costa Rica

Leveyspiiri: 10-00N, Pituuspiiri: 084-13W, korkeus merenpinnasta: 920 m

Tämänhetkinen sää

Tämä raportti tehtiin 21 minuuttia sitten, kello 12.00 UTC
Tuuli 8 kn idästä, vaihdellen koillisen ja idän/kaakon välillä
Lämpötila 21°C
Kosteus 73%
Ilmanpaine 1015 hPa
Näkyvyys 10 km tai enemmän
ei pilviä alle 1500 m:ssä eikä cumulonimbus-pilviä

METAR: MROC 291200Z 08008KT 040V110 CAVOK 21/16 A2998 NOSIG

Aika: 06:21 (12:21 UTC)

Sääennuste

Tämä raportti tehtiin 1 tunti ja 21 minuuttia sitten, kello 11.00 UTC
Ennuste voimassa 29. päivästä klo 12 UTC - 30. päivään klo 12 UTC
Tuuli 13 kn idästä
Näkyvyys 10 km tai enemmän
Muutamia pilviä 4000 ft:n korkeudessa
Ajoittain
29. päivästä klo 12 UTC - 29. päivään klo 20 UTC
Tuuli 14 kn idästä puuskistuen 25 kn:hen

TAF: MROC 291100Z 2912/3012 10013KT 9999 FEW040 TX30/2919Z TN21/3011Z TEMPO 2912/2920 09014G25KT

Säähavainnot ja -ennusteet yli 4000 lentoasemalta (METAR- ja TAF-raportit).

Käytössä olevat sääasemat on merkitty karttaan keltaisilla ja punaisilla pisteillä.

Aseta hiiri pisteen päälle nähdäksesi sääaseman nimen.

Klikkaa sitten nähdäksesi säähavainnot ja -ennusteet.

Kartan vaihtaminen: klikkaa mustalla rastilla varustettuja vihreitä pisteitä, niin voit zoomata sisään; viivalla varustettua vihreää pistettä, niin voit zoomata ulos tai vihreitä nuolia, niin pääset viereisille kartoille.


METAR-TAF: